sensor_id;sensor_type;location;lat;lon;timestamp;P1;durP1;ratioP1;P2;durP2;ratioP2
3718;SDS011;1875;52.492;6.860;2023-04-01T00:00:47;9.10;;;3.90;;
3718;SDS011;1875;52.492;6.860;2023-04-01T00:03:16;8.23;;;3.87;;
3718;SDS011;1875;52.492;6.860;2023-04-01T00:05:44;7.60;;;3.67;;
3718;SDS011;1875;52.492;6.860;2023-04-01T00:08:12;7.40;;;3.90;;
3718;SDS011;1875;52.492;6.860;2023-04-01T00:10:41;6.90;;;3.90;;
3718;SDS011;1875;52.492;6.860;2023-04-01T00:13:09;8.60;;;3.80;;
3718;SDS011;1875;52.492;6.860;2023-04-01T00:15:37;6.00;;;3.23;;
3718;SDS011;1875;52.492;6.860;2023-04-01T00:18:05;6.20;;;3.63;;
3718;SDS011;1875;52.492;6.860;2023-04-01T00:20:33;8.33;;;3.73;;
3718;SDS011;1875;52.492;6.860;2023-04-01T00:23:01;4.97;;;3.07;;
3718;SDS011;1875;52.492;6.860;2023-04-01T00:25:28;4.77;;;3.30;;
3718;SDS011;1875;52.492;6.860;2023-04-01T00:27:58;6.57;;;3.33;;
3718;SDS011;1875;52.492;6.860;2023-04-01T00:30:26;6.10;;;3.10;;
3718;SDS011;1875;52.492;6.860;2023-04-01T00:32:54;7.03;;;3.57;;
3718;SDS011;1875;52.492;6.860;2023-04-01T00:35:22;7.07;;;3.23;;
3718;SDS011;1875;52.492;6.860;2023-04-01T00:37:49;6.37;;;3.13;;
3718;SDS011;1875;52.492;6.860;2023-04-01T00:40:23;4.90;;;3.33;;
3718;SDS011;1875;52.492;6.860;2023-04-01T00:42:53;8.20;;;3.30;;
3718;SDS011;1875;52.492;6.860;2023-04-01T00:45:25;8.30;;;4.07;;
3718;SDS011;1875;52.492;6.860;2023-04-01T00:47:56;11.77;;;3.90;;
3718;SDS011;1875;52.492;6.860;2023-04-01T00:50:25;6.63;;;4.10;;
3718;SDS011;1875;52.492;6.860;2023-04-01T00:52:54;7.40;;;3.90;;
3718;SDS011;1875;52.492;6.860;2023-04-01T00:55:22;6.60;;;3.57;;
3718;SDS011;1875;52.492;6.860;2023-04-01T00:57:50;8.27;;;3.87;;
3718;SDS011;1875;52.492;6.860;2023-04-01T01:00:20;7.37;;;3.83;;
3718;SDS011;1875;52.492;6.860;2023-04-01T01:02:49;8.00;;;3.80;;
3718;SDS011;1875;52.492;6.860;2023-04-01T01:05:18;6.87;;;4.10;;
3718;SDS011;1875;52.492;6.860;2023-04-01T01:07:52;5.30;;;3.67;;
3718;SDS011;1875;52.492;6.860;2023-04-01T01:10:29;5.07;;;3.90;;
3718;SDS011;1875;52.492;6.860;2023-04-01T01:12:59;6.87;;;3.97;;
3718;SDS011;1875;52.492;6.860;2023-04-01T01:15:32;5.17;;;3.90;;
3718;SDS011;1875;52.492;6.860;2023-04-01T01:18:05;6.30;;;3.80;;
3718;SDS011;1875;52.492;6.860;2023-04-01T01:23:43;10.27;;;4.20;;
3718;SDS011;1875;52.492;6.860;2023-04-01T01:26:33;8.50;;;3.63;;
3718;SDS011;1875;52.492;6.860;2023-04-01T01:32:38;5.40;;;3.63;;
3718;SDS011;1875;52.492;6.860;2023-04-01T01:35:20;6.37;;;4.00;;
3718;SDS011;1875;52.492;6.860;2023-04-01T01:37:51;6.60;;;3.97;;
3718;SDS011;1875;52.492;6.860;2023-04-01T01:40:21;7.20;;;3.70;;
3718;SDS011;1875;52.492;6.860;2023-04-01T01:42:51;7.60;;;4.13;;
3718;SDS011;1875;52.492;6.860;2023-04-01T01:45:23;7.57;;;4.00;;
3718;SDS011;1875;52.492;6.860;2023-04-01T01:47:52;6.33;;;4.73;;
3718;SDS011;1875;52.492;6.860;2023-04-01T01:50:24;8.00;;;4.23;;
3718;SDS011;1875;52.492;6.860;2023-04-01T01:53:00;6.57;;;3.90;;
3718;SDS011;1875;52.492;6.860;2023-04-01T01:55:32;7.77;;;3.97;;
3718;SDS011;1875;52.492;6.860;2023-04-01T01:58:02;4.97;;;3.93;;
3718;SDS011;1875;52.492;6.860;2023-04-01T02:00:33;7.73;;;4.80;;
3718;SDS011;1875;52.492;6.860;2023-04-01T02:03:01;6.50;;;3.97;;
3718;SDS011;1875;52.492;6.860;2023-04-01T02:05:30;5.67;;;4.30;;
3718;SDS011;1875;52.492;6.860;2023-04-01T02:08:01;5.73;;;4.10;;
3718;SDS011;1875;52.492;6.860;2023-04-01T02:10:31;6.07;;;4.10;;
3718;SDS011;1875;52.492;6.860;2023-04-01T02:13:03;6.57;;;3.97;;
3718;SDS011;1875;52.492;6.860;2023-04-01T02:15:36;7.13;;;4.37;;
3718;SDS011;1875;52.492;6.860;2023-04-01T02:18:08;5.93;;;3.97;;
3718;SDS011;1875;52.492;6.860;2023-04-01T02:20:38;7.40;;;4.17;;
3718;SDS011;1875;52.492;6.860;2023-04-01T02:23:06;4.17;;;3.57;;
3718;SDS011;1875;52.492;6.860;2023-04-01T02:25:35;6.23;;;3.60;;
3718;SDS011;1875;52.492;6.860;2023-04-01T02:28:43;5.23;;;3.73;;
3718;SDS011;1875;52.492;6.860;2023-04-01T02:31:14;4.90;;;3.47;;
3718;SDS011;1875;52.492;6.860;2023-04-01T02:33:42;5.73;;;3.50;;
3718;SDS011;1875;52.492;6.860;2023-04-01T02:36:10;5.93;;;3.77;;
3718;SDS011;1875;52.492;6.860;2023-04-01T02:38:40;4.77;;;3.60;;
3718;SDS011;1875;52.492;6.860;2023-04-01T02:41:08;4.60;;;3.70;;
3718;SDS011;1875;52.492;6.860;2023-04-01T02:43:36;5.27;;;3.73;;
3718;SDS011;1875;52.492;6.860;2023-04-01T02:46:06;4.47;;;3.53;;
3718;SDS011;1875;52.492;6.860;2023-04-01T02:48:34;5.23;;;3.60;;
3718;SDS011;1875;52.492;6.860;2023-04-01T02:51:02;6.57;;;4.27;;
3718;SDS011;1875;52.492;6.860;2023-04-01T02:53:30;6.10;;;4.30;;
3718;SDS011;1875;52.492;6.860;2023-04-01T02:55:57;6.00;;;4.40;;
3718;SDS011;1875;52.492;6.860;2023-04-01T02:58:25;5.87;;;4.80;;
3718;SDS011;1875;52.492;6.860;2023-04-01T03:00:53;6.20;;;4.63;;
3718;SDS011;1875;52.492;6.860;2023-04-01T03:03:22;5.63;;;4.40;;
3718;SDS011;1875;52.492;6.860;2023-04-01T03:05:50;7.00;;;5.10;;
3718;SDS011;1875;52.492;6.860;2023-04-01T03:08:21;7.03;;;4.97;;
3718;SDS011;1875;52.492;6.860;2023-04-01T03:10:49;6.87;;;5.23;;
3718;SDS011;1875;52.492;6.860;2023-04-01T03:13:17;7.70;;;5.37;;
3718;SDS011;1875;52.492;6.860;2023-04-01T03:15:44;7.13;;;5.77;;
3718;SDS011;1875;52.492;6.860;2023-04-01T03:18:12;7.50;;;5.63;;
3718;SDS011;1875;52.492;6.860;2023-04-01T03:20:41;8.07;;;5.60;;
3718;SDS011;1875;52.492;6.860;2023-04-01T03:23:09;7.33;;;5.73;;
3718;SDS011;1875;52.492;6.860;2023-04-01T03:25:37;10.47;;;6.73;;
3718;SDS011;1875;52.492;6.860;2023-04-01T03:28:05;9.10;;;6.47;;
3718;SDS011;1875;52.492;6.860;2023-04-01T03:30:33;12.27;;;6.87;;
3718;SDS011;1875;52.492;6.860;2023-04-01T03:33:00;9.20;;;7.27;;
3718;SDS011;1875;52.492;6.860;2023-04-01T03:35:29;9.70;;;6.73;;
3718;SDS011;1875;52.492;6.860;2023-04-01T03:37:58;9.30;;;6.90;;
3718;SDS011;1875;52.492;6.860;2023-04-01T03:40:26;10.77;;;7.67;;
3718;SDS011;1875;52.492;6.860;2023-04-01T03:42:54;9.47;;;7.33;;
3718;SDS011;1875;52.492;6.860;2023-04-01T03:45:22;9.23;;;7.17;;
3718;SDS011;1875;52.492;6.860;2023-04-01T03:47:50;11.83;;;8.03;;
3718;SDS011;1875;52.492;6.860;2023-04-01T03:50:17;14.07;;;8.23;;
3718;SDS011;1875;52.492;6.860;2023-04-01T03:52:45;12.57;;;7.73;;
3718;SDS011;1875;52.492;6.860;2023-04-01T03:55:14;12.40;;;8.10;;
3718;SDS011;1875;52.492;6.860;2023-04-01T03:57:43;9.97;;;7.80;;
3718;SDS011;1875;52.492;6.860;2023-04-01T04:00:11;14.83;;;8.87;;
3718;SDS011;1875;52.492;6.860;2023-04-01T04:02:39;10.60;;;8.40;;
3718;SDS011;1875;52.492;6.860;2023-04-01T04:05:07;12.13;;;8.67;;
3718;SDS011;1875;52.492;6.860;2023-04-01T04:07:35;15.30;;;8.73;;
3718;SDS011;1875;52.492;6.860;2023-04-01T04:10:03;11.03;;;7.70;;
3718;SDS011;1875;52.492;6.860;2023-04-01T04:12:33;13.83;;;8.13;;
3718;SDS011;1875;52.492;6.860;2023-04-01T04:15:01;11.13;;;7.77;;
3718;SDS011;1875;52.492;6.860;2023-04-01T04:17:29;10.37;;;7.53;;
3718;SDS011;1875;52.492;6.860;2023-04-01T04:19:57;11.97;;;7.47;;
3718;SDS011;1875;52.492;6.860;2023-04-01T04:22:25;11.50;;;7.23;;
3718;SDS011;1875;52.492;6.860;2023-04-01T04:24:53;12.37;;;8.13;;
3718;SDS011;1875;52.492;6.860;2023-04-01T04:27:20;11.03;;;7.43;;
3718;SDS011;1875;52.492;6.860;2023-04-01T04:29:49;13.20;;;8.10;;
3718;SDS011;1875;52.492;6.860;2023-04-01T04:32:17;15.80;;;8.77;;
3718;SDS011;1875;52.492;6.860;2023-04-01T04:34:45;14.17;;;8.90;;
3718;SDS011;1875;52.492;6.860;2023-04-01T04:37:12;12.47;;;8.27;;
3718;SDS011;1875;52.492;6.860;2023-04-01T04:39:40;14.20;;;8.83;;
3718;SDS011;1875;52.492;6.860;2023-04-01T04:42:08;14.50;;;9.17;;
3718;SDS011;1875;52.492;6.860;2023-04-01T04:44:36;14.67;;;8.80;;
3718;SDS011;1875;52.492;6.860;2023-04-01T04:47:05;15.50;;;9.77;;
3718;SDS011;1875;52.492;6.860;2023-04-01T04:49:33;11.77;;;8.77;;
3718;SDS011;1875;52.492;6.860;2023-04-01T04:52:00;14.30;;;9.17;;
3718;SDS011;1875;52.492;6.860;2023-04-01T04:54:29;18.90;;;10.93;;
3718;SDS011;1875;52.492;6.860;2023-04-01T04:56:56;16.70;;;11.23;;
3718;SDS011;1875;52.492;6.860;2023-04-01T04:59:24;20.93;;;10.97;;
3718;SDS011;1875;52.492;6.860;2023-04-01T05:01:52;17.07;;;10.90;;
3718;SDS011;1875;52.492;6.860;2023-04-01T05:04:21;15.27;;;11.17;;
3718;SDS011;1875;52.492;6.860;2023-04-01T05:06:49;16.83;;;10.10;;
3718;SDS011;1875;52.492;6.860;2023-04-01T05:09:18;17.93;;;11.63;;
3718;SDS011;1875;52.492;6.860;2023-04-01T05:11:46;19.60;;;11.90;;
3718;SDS011;1875;52.492;6.860;2023-04-01T05:14:14;19.07;;;11.37;;
3718;SDS011;1875;52.492;6.860;2023-04-01T05:16:42;19.53;;;12.03;;
3718;SDS011;1875;52.492;6.860;2023-04-01T05:19:10;16.40;;;10.30;;
3718;SDS011;1875;52.492;6.860;2023-04-01T05:21:39;21.90;;;11.40;;
3718;SDS011;1875;52.492;6.860;2023-04-01T05:24:07;22.67;;;12.40;;
3718;SDS011;1875;52.492;6.860;2023-04-01T05:26:36;17.87;;;11.07;;
3718;SDS011;1875;52.492;6.860;2023-04-01T05:29:04;14.87;;;9.43;;
3718;SDS011;1875;52.492;6.860;2023-04-01T05:31:31;17.87;;;9.80;;
3718;SDS011;1875;52.492;6.860;2023-04-01T05:33:59;15.17;;;10.17;;
3718;SDS011;1875;52.492;6.860;2023-04-01T05:36:27;17.03;;;10.47;;
3718;SDS011;1875;52.492;6.860;2023-04-01T05:38:56;14.57;;;10.37;;
3718;SDS011;1875;52.492;6.860;2023-04-01T05:41:24;19.57;;;11.03;;
3718;SDS011;1875;52.492;6.860;2023-04-01T05:43:52;19.03;;;10.83;;
3718;SDS011;1875;52.492;6.860;2023-04-01T05:46:20;17.23;;;10.23;;
3718;SDS011;1875;52.492;6.860;2023-04-01T05:48:47;16.23;;;10.67;;
3718;SDS011;1875;52.492;6.860;2023-04-01T05:51:15;16.80;;;10.07;;
3718;SDS011;1875;52.492;6.860;2023-04-01T05:53:43;16.47;;;9.67;;
3718;SDS011;1875;52.492;6.860;2023-04-01T05:56:12;13.97;;;9.17;;
3718;SDS011;1875;52.492;6.860;2023-04-01T05:58:40;17.07;;;10.03;;
3718;SDS011;1875;52.492;6.860;2023-04-01T06:01:09;16.50;;;10.40;;
3718;SDS011;1875;52.492;6.860;2023-04-01T06:03:42;16.27;;;9.50;;
3718;SDS011;1875;52.492;6.860;2023-04-01T06:06:11;15.50;;;10.10;;
3718;SDS011;1875;52.492;6.860;2023-04-01T06:08:41;14.83;;;9.23;;
3718;SDS011;1875;52.492;6.860;2023-04-01T06:11:18;14.03;;;9.53;;
3718;SDS011;1875;52.492;6.860;2023-04-01T06:14:00;17.50;;;9.30;;
3718;SDS011;1875;52.492;6.860;2023-04-01T06:16:39;16.63;;;9.87;;
3718;SDS011;1875;52.492;6.860;2023-04-01T06:19:15;18.23;;;10.30;;
3718;SDS011;1875;52.492;6.860;2023-04-01T06:21:56;16.00;;;10.87;;
3718;SDS011;1875;52.492;6.860;2023-04-01T06:24:40;14.33;;;9.70;;
3718;SDS011;1875;52.492;6.860;2023-04-01T06:27:18;15.87;;;9.67;;
3718;SDS011;1875;52.492;6.860;2023-04-01T06:29:58;17.17;;;10.93;;
3718;SDS011;1875;52.492;6.860;2023-04-01T06:32:37;13.63;;;8.33;;
3718;SDS011;1875;52.492;6.860;2023-04-01T06:35:17;13.03;;;9.07;;
3718;SDS011;1875;52.492;6.860;2023-04-01T06:37:56;12.33;;;8.27;;
3718;SDS011;1875;52.492;6.860;2023-04-01T06:40:43;12.13;;;7.73;;
3718;SDS011;1875;52.492;6.860;2023-04-01T06:43:20;11.00;;;6.97;;
3718;SDS011;1875;52.492;6.860;2023-04-01T06:45:54;9.67;;;6.87;;
3718;SDS011;1875;52.492;6.860;2023-04-01T06:48:37;10.67;;;6.97;;
3718;SDS011;1875;52.492;6.860;2023-04-01T06:51:12;8.40;;;5.60;;
3718;SDS011;1875;52.492;6.860;2023-04-01T06:53:47;8.97;;;6.00;;
3718;SDS011;1875;52.492;6.860;2023-04-01T06:56:19;7.97;;;6.20;;
3718;SDS011;1875;52.492;6.860;2023-04-01T06:58:50;9.13;;;6.07;;
3718;SDS011;1875;52.492;6.860;2023-04-01T07:01:21;7.27;;;5.40;;
3718;SDS011;1875;52.492;6.860;2023-04-01T07:03:52;6.93;;;5.37;;
3718;SDS011;1875;52.492;6.860;2023-04-01T07:06:23;8.00;;;5.83;;
3718;SDS011;1875;52.492;6.860;2023-04-01T07:08:53;7.37;;;5.40;;
3718;SDS011;1875;52.492;6.860;2023-04-01T07:11:24;8.80;;;6.03;;
3718;SDS011;1875;52.492;6.860;2023-04-01T07:13:55;9.83;;;6.43;;
3718;SDS011;1875;52.492;6.860;2023-04-01T07:16:29;6.90;;;5.40;;
3718;SDS011;1875;52.492;6.860;2023-04-01T07:18:58;6.87;;;5.30;;
3718;SDS011;1875;52.492;6.860;2023-04-01T07:21:29;5.97;;;5.07;;
3718;SDS011;1875;52.492;6.860;2023-04-01T07:23:59;9.57;;;5.93;;
3718;SDS011;1875;52.492;6.860;2023-04-01T07:26:31;6.93;;;5.50;;
3718;SDS011;1875;52.492;6.860;2023-04-01T07:29:00;7.40;;;5.23;;
3718;SDS011;1875;52.492;6.860;2023-04-01T07:31:32;6.87;;;4.63;;
3718;SDS011;1875;52.492;6.860;2023-04-01T07:34:09;8.30;;;5.53;;
3718;SDS011;1875;52.492;6.860;2023-04-01T07:36:42;6.50;;;4.93;;
3718;SDS011;1875;52.492;6.860;2023-04-01T07:39:15;5.57;;;4.57;;
3718;SDS011;1875;52.492;6.860;2023-04-01T07:41:50;6.13;;;5.17;;
3718;SDS011;1875;52.492;6.860;2023-04-01T07:44:23;7.50;;;4.70;;
3718;SDS011;1875;52.492;6.860;2023-04-01T07:46:56;6.83;;;5.30;;
3718;SDS011;1875;52.492;6.860;2023-04-01T07:49:29;7.10;;;5.37;;
3718;SDS011;1875;52.492;6.860;2023-04-01T07:52:01;6.03;;;4.67;;
3718;SDS011;1875;52.492;6.860;2023-04-01T07:54:36;5.13;;;4.53;;
3718;SDS011;1875;52.492;6.860;2023-04-01T07:57:07;5.20;;;4.70;;
3718;SDS011;1875;52.492;6.860;2023-04-01T07:59:43;4.63;;;4.23;;
3718;SDS011;1875;52.492;6.860;2023-04-01T08:02:21;6.43;;;4.60;;
3718;SDS011;1875;52.492;6.860;2023-04-01T08:04:59;5.60;;;4.93;;
3718;SDS011;1875;52.492;6.860;2023-04-01T08:07:34;5.87;;;4.40;;
3718;SDS011;1875;52.492;6.860;2023-04-01T08:10:08;7.23;;;4.77;;
3718;SDS011;1875;52.492;6.860;2023-04-01T08:12:42;9.17;;;6.23;;
3718;SDS011;1875;52.492;6.860;2023-04-01T08:15:15;6.73;;;4.70;;
3718;SDS011;1875;52.492;6.860;2023-04-01T08:17:52;5.07;;;4.07;;
3718;SDS011;1875;52.492;6.860;2023-04-01T08:20:27;5.50;;;4.23;;
3718;SDS011;1875;52.492;6.860;2023-04-01T08:23:02;5.50;;;4.33;;
3718;SDS011;1875;52.492;6.860;2023-04-01T08:25:34;6.30;;;4.53;;
3718;SDS011;1875;52.492;6.860;2023-04-01T08:28:09;5.33;;;4.53;;
3718;SDS011;1875;52.492;6.860;2023-04-01T08:30:41;9.27;;;4.30;;
3718;SDS011;1875;52.492;6.860;2023-04-01T08:33:11;5.70;;;4.47;;
3718;SDS011;1875;52.492;6.860;2023-04-01T08:35:42;6.50;;;4.57;;
3718;SDS011;1875;52.492;6.860;2023-04-01T08:38:15;5.20;;;4.10;;
3718;SDS011;1875;52.492;6.860;2023-04-01T08:41:01;4.97;;;4.43;;
3718;SDS011;1875;52.492;6.860;2023-04-01T08:46:50;8.30;;;3.63;;
3718;SDS011;1875;52.492;6.860;2023-04-01T08:49:32;4.03;;;3.50;;
3718;SDS011;1875;52.492;6.860;2023-04-01T08:52:21;3.47;;;3.17;;
3718;SDS011;1875;52.492;6.860;2023-04-01T08:57:51;2.87;;;2.50;;
3718;SDS011;1875;52.492;6.860;2023-04-01T09:00:25;2.90;;;2.60;;
3718;SDS011;1875;52.492;6.860;2023-04-01T09:06:11;2.20;;;2.00;;
3718;SDS011;1875;52.492;6.860;2023-04-01T09:08:49;3.87;;;2.53;;
3718;SDS011;1875;52.492;6.860;2023-04-01T09:11:27;3.77;;;2.97;;
3718;SDS011;1875;52.492;6.860;2023-04-01T09:14:10;2.73;;;2.43;;
3718;SDS011;1875;52.492;6.860;2023-04-01T09:17:06;4.03;;;3.03;;
3718;SDS011;1875;52.492;6.860;2023-04-01T09:19:45;3.40;;;2.87;;
3718;SDS011;1875;52.492;6.860;2023-04-01T09:22:25;4.93;;;3.83;;
3718;SDS011;1875;52.492;6.860;2023-04-01T09:25:02;3.63;;;3.07;;
3718;SDS011;1875;52.492;6.860;2023-04-01T09:27:52;3.13;;;2.83;;
3718;SDS011;1875;52.492;6.860;2023-04-01T09:30:33;14.60;;;10.33;;
3718;SDS011;1875;52.492;6.860;2023-04-01T09:36:29;3.10;;;2.80;;
3718;SDS011;1875;52.492;6.860;2023-04-01T09:39:13;3.63;;;2.97;;
3718;SDS011;1875;52.492;6.860;2023-04-01T09:41:47;3.03;;;2.70;;
3718;SDS011;1875;52.492;6.860;2023-04-01T09:44:24;3.47;;;3.00;;
3718;SDS011;1875;52.492;6.860;2023-04-01T09:47:00;4.77;;;3.80;;
3718;SDS011;1875;52.492;6.860;2023-04-01T09:49:40;5.70;;;3.70;;
3718;SDS011;1875;52.492;6.860;2023-04-01T09:52:20;4.57;;;3.97;;
3718;SDS011;1875;52.492;6.860;2023-04-01T09:54:59;5.07;;;3.90;;
3718;SDS011;1875;52.492;6.860;2023-04-01T09:57:44;5.40;;;4.47;;
3718;SDS011;1875;52.492;6.860;2023-04-01T10:00:51;5.63;;;4.43;;
3718;SDS011;1875;52.492;6.860;2023-04-01T10:18:56;5.00;;;3.97;;
3718;SDS011;1875;52.492;6.860;2023-04-01T10:21:50;6.40;;;4.77;;
3718;SDS011;1875;52.492;6.860;2023-04-01T10:27:57;5.43;;;3.80;;
3718;SDS011;1875;52.492;6.860;2023-04-01T10:31:02;11.00;;;7.77;;
3718;SDS011;1875;52.492;6.860;2023-04-01T10:33:54;6.73;;;5.30;;
3718;SDS011;1875;52.492;6.860;2023-04-01T10:39:33;5.20;;;3.77;;
3718;SDS011;1875;52.492;6.860;2023-04-01T10:48:22;1.60;;;1.50;;
3718;SDS011;1875;52.492;6.860;2023-04-01T10:51:12;2.30;;;1.93;;
3718;SDS011;1875;52.492;6.860;2023-04-01T10:53:46;2.73;;;2.43;;
3718;SDS011;1875;52.492;6.860;2023-04-01T11:02:24;2.10;;;1.97;;
3718;SDS011;1875;52.492;6.860;2023-04-01T11:05:27;2.13;;;1.87;;
3718;SDS011;1875;52.492;6.860;2023-04-01T11:08:20;3.43;;;2.73;;
3718;SDS011;1875;52.492;6.860;2023-04-01T11:11:14;3.17;;;2.40;;
3718;SDS011;1875;52.492;6.860;2023-04-01T11:17:10;2.93;;;2.63;;
3718;SDS011;1875;52.492;6.860;2023-04-01T11:23:05;4.10;;;2.70;;
3718;SDS011;1875;52.492;6.860;2023-04-01T11:25:46;2.20;;;2.00;;
3718;SDS011;1875;52.492;6.860;2023-04-01T11:31:23;33.07;;;21.77;;
3718;SDS011;1875;52.492;6.860;2023-04-01T11:34:05;7.70;;;3.47;;
3718;SDS011;1875;52.492;6.860;2023-04-01T11:36:45;5.27;;;3.17;;
3718;SDS011;1875;52.492;6.860;2023-04-01T11:39:22;3.37;;;2.40;;
3718;SDS011;1875;52.492;6.860;2023-04-01T11:41:53;3.00;;;2.40;;
3718;SDS011;1875;52.492;6.860;2023-04-01T11:44:26;5.97;;;2.90;;
3718;SDS011;1875;52.492;6.860;2023-04-01T11:47:02;3.80;;;3.03;;
3718;SDS011;1875;52.492;6.860;2023-04-01T11:49:42;4.63;;;2.97;;
3718;SDS011;1875;52.492;6.860;2023-04-01T11:52:21;4.87;;;3.57;;
3718;SDS011;1875;52.492;6.860;2023-04-01T11:57:59;3.93;;;2.83;;
3718;SDS011;1875;52.492;6.860;2023-04-01T12:00:48;3.63;;;2.67;;
3718;SDS011;1875;52.492;6.860;2023-04-01T12:03:30;8.50;;;4.27;;
3718;SDS011;1875;52.492;6.860;2023-04-01T12:06:11;17.03;;;10.63;;
3718;SDS011;1875;52.492;6.860;2023-04-01T12:08:44;4.83;;;3.80;;
3718;SDS011;1875;52.492;6.860;2023-04-01T12:11:17;5.80;;;3.63;;
3718;SDS011;1875;52.492;6.860;2023-04-01T12:13:51;6.43;;;4.07;;
3718;SDS011;1875;52.492;6.860;2023-04-01T12:16:29;17.83;;;12.33;;
3718;SDS011;1875;52.492;6.860;2023-04-01T12:19:09;5.33;;;4.27;;
3718;SDS011;1875;52.492;6.860;2023-04-01T12:21:42;6.83;;;4.93;;
3718;SDS011;1875;52.492;6.860;2023-04-01T12:27:24;3.50;;;2.80;;
3718;SDS011;1875;52.492;6.860;2023-04-01T12:30:02;2.83;;;2.53;;
3718;SDS011;1875;52.492;6.860;2023-04-01T12:32:38;2.47;;;2.27;;
3718;SDS011;1875;52.492;6.860;2023-04-01T12:35:14;3.23;;;2.70;;
3718;SDS011;1875;52.492;6.860;2023-04-01T12:37:49;3.73;;;2.93;;
3718;SDS011;1875;52.492;6.860;2023-04-01T12:40:24;6.63;;;4.77;;
3718;SDS011;1875;52.492;6.860;2023-04-01T12:43:04;4.23;;;2.80;;
3718;SDS011;1875;52.492;6.860;2023-04-01T12:45:38;3.53;;;2.87;;
3718;SDS011;1875;52.492;6.860;2023-04-01T12:51:21;2.90;;;2.57;;
3718;SDS011;1875;52.492;6.860;2023-04-01T12:54:18;4.23;;;2.97;;
3718;SDS011;1875;52.492;6.860;2023-04-01T12:57:16;4.30;;;3.27;;
3718;SDS011;1875;52.492;6.860;2023-04-01T13:00:05;6.47;;;4.57;;
3718;SDS011;1875;52.492;6.860;2023-04-01T13:02:45;4.10;;;3.40;;
3718;SDS011;1875;52.492;6.860;2023-04-01T13:08:22;5.50;;;3.30;;
3718;SDS011;1875;52.492;6.860;2023-04-01T13:11:02;5.47;;;3.37;;
3718;SDS011;1875;52.492;6.860;2023-04-01T13:13:44;3.90;;;3.00;;
3718;SDS011;1875;52.492;6.860;2023-04-01T13:16:21;3.80;;;2.77;;
3718;SDS011;1875;52.492;6.860;2023-04-01T13:18:54;4.07;;;3.00;;
3718;SDS011;1875;52.492;6.860;2023-04-01T13:21:26;4.00;;;2.60;;
3718;SDS011;1875;52.492;6.860;2023-04-01T13:24:03;3.17;;;2.30;;
3718;SDS011;1875;52.492;6.860;2023-04-01T13:26:34;3.73;;;1.87;;
3718;SDS011;1875;52.492;6.860;2023-04-01T13:29:06;2.57;;;2.03;;
3718;SDS011;1875;52.492;6.860;2023-04-01T13:31:42;7.03;;;4.73;;
3718;SDS011;1875;52.492;6.860;2023-04-01T13:34:19;4.20;;;2.60;;
3718;SDS011;1875;52.492;6.860;2023-04-01T13:36:55;2.43;;;2.23;;
3718;SDS011;1875;52.492;6.860;2023-04-01T13:39:30;2.50;;;2.17;;
3718;SDS011;1875;52.492;6.860;2023-04-01T13:42:13;2.57;;;2.37;;
3718;SDS011;1875;52.492;6.860;2023-04-01T13:44:45;3.57;;;2.87;;
3718;SDS011;1875;52.492;6.860;2023-04-01T13:47:22;3.67;;;3.20;;
3718;SDS011;1875;52.492;6.860;2023-04-01T13:50:03;7.17;;;4.97;;
3718;SDS011;1875;52.492;6.860;2023-04-01T13:52:47;4.80;;;4.00;;
3718;SDS011;1875;52.492;6.860;2023-04-01T13:55:23;6.40;;;3.13;;
3718;SDS011;1875;52.492;6.860;2023-04-01T13:58:02;4.57;;;3.50;;
3718;SDS011;1875;52.492;6.860;2023-04-01T14:00:42;4.70;;;4.00;;
3718;SDS011;1875;52.492;6.860;2023-04-01T14:06:11;3.73;;;3.23;;
3718;SDS011;1875;52.492;6.860;2023-04-01T14:08:46;4.03;;;3.20;;
3718;SDS011;1875;52.492;6.860;2023-04-01T14:11:25;3.23;;;2.87;;
3718;SDS011;1875;52.492;6.860;2023-04-01T14:13:59;4.53;;;2.90;;
3718;SDS011;1875;52.492;6.860;2023-04-01T14:16:44;6.20;;;4.33;;
3718;SDS011;1875;52.492;6.860;2023-04-01T14:19:37;4.13;;;3.50;;
3718;SDS011;1875;52.492;6.860;2023-04-01T14:22:20;5.67;;;4.13;;
3718;SDS011;1875;52.492;6.860;2023-04-01T14:24:56;4.63;;;4.23;;
3718;SDS011;1875;52.492;6.860;2023-04-01T14:27:44;3.57;;;3.07;;
3718;SDS011;1875;52.492;6.860;2023-04-01T14:30:22;5.33;;;4.83;;
3718;SDS011;1875;52.492;6.860;2023-04-01T14:32:59;6.43;;;5.13;;
3718;SDS011;1875;52.492;6.860;2023-04-01T14:35:35;6.17;;;5.10;;
3718;SDS011;1875;52.492;6.860;2023-04-01T14:38:19;6.90;;;5.63;;
3718;SDS011;1875;52.492;6.860;2023-04-01T14:40:54;8.97;;;7.60;;
3718;SDS011;1875;52.492;6.860;2023-04-01T14:43:35;9.70;;;6.57;;
3718;SDS011;1875;52.492;6.860;2023-04-01T14:49:02;10.43;;;7.50;;
3718;SDS011;1875;52.492;6.860;2023-04-01T14:51:33;8.30;;;5.43;;
3718;SDS011;1875;52.492;6.860;2023-04-01T14:54:05;7.00;;;6.10;;
3718;SDS011;1875;52.492;6.860;2023-04-01T14:56:37;6.77;;;4.73;;
3718;SDS011;1875;52.492;6.860;2023-04-01T14:59:10;9.20;;;7.50;;
3718;SDS011;1875;52.492;6.860;2023-04-01T15:01:47;8.53;;;6.83;;
3718;SDS011;1875;52.492;6.860;2023-04-01T15:04:26;8.27;;;6.73;;
3718;SDS011;1875;52.492;6.860;2023-04-01T15:07:05;7.30;;;6.10;;
3718;SDS011;1875;52.492;6.860;2023-04-01T15:09:40;8.33;;;6.80;;
3718;SDS011;1875;52.492;6.860;2023-04-01T15:12:13;10.27;;;6.47;;
3718;SDS011;1875;52.492;6.860;2023-04-01T15:14:51;8.97;;;7.27;;
3718;SDS011;1875;52.492;6.860;2023-04-01T15:17:55;10.20;;;8.73;;
3718;SDS011;1875;52.492;6.860;2023-04-01T15:20:32;10.23;;;7.97;;
3718;SDS011;1875;52.492;6.860;2023-04-01T15:23:23;12.33;;;9.73;;
3718;SDS011;1875;52.492;6.860;2023-04-01T15:26:05;13.77;;;10.73;;
3718;SDS011;1875;52.492;6.860;2023-04-01T15:28:58;11.37;;;8.93;;
3718;SDS011;1875;52.492;6.860;2023-04-01T15:31:34;13.37;;;9.73;;
3718;SDS011;1875;52.492;6.860;2023-04-01T15:36:57;12.03;;;8.13;;
3718;SDS011;1875;52.492;6.860;2023-04-01T15:39:35;10.43;;;8.60;;
3718;SDS011;1875;52.492;6.860;2023-04-01T15:42:21;18.80;;;12.57;;
3718;SDS011;1875;52.492;6.860;2023-04-01T15:45:06;16.17;;;12.63;;
3718;SDS011;1875;52.492;6.860;2023-04-01T15:47:40;14.47;;;12.47;;
3718;SDS011;1875;52.492;6.860;2023-04-01T15:50:34;12.37;;;10.60;;
3718;SDS011;1875;52.492;6.860;2023-04-01T15:53:23;10.57;;;8.73;;
3718;SDS011;1875;52.492;6.860;2023-04-01T15:55:58;12.17;;;9.53;;
3718;SDS011;1875;52.492;6.860;2023-04-01T15:58:30;10.60;;;8.53;;
3718;SDS011;1875;52.492;6.860;2023-04-01T16:01:07;14.00;;;11.37;;
3718;SDS011;1875;52.492;6.860;2023-04-01T16:03:43;11.53;;;9.43;;
3718;SDS011;1875;52.492;6.860;2023-04-01T16:12:27;12.03;;;10.40;;
3718;SDS011;1875;52.492;6.860;2023-04-01T16:15:03;11.00;;;8.57;;
3718;SDS011;1875;52.492;6.860;2023-04-01T16:17:49;13.17;;;10.90;;
3718;SDS011;1875;52.492;6.860;2023-04-01T16:20:24;10.07;;;8.03;;
3718;SDS011;1875;52.492;6.860;2023-04-01T16:22:55;13.90;;;9.60;;
3718;SDS011;1875;52.492;6.860;2023-04-01T16:25:31;11.00;;;8.83;;
3718;SDS011;1875;52.492;6.860;2023-04-01T16:28:08;12.43;;;11.13;;
3718;SDS011;1875;52.492;6.860;2023-04-01T16:30:46;11.17;;;10.03;;
3718;SDS011;1875;52.492;6.860;2023-04-01T16:33:18;12.37;;;11.07;;
3718;SDS011;1875;52.492;6.860;2023-04-01T16:35:52;9.73;;;8.73;;
3718;SDS011;1875;52.492;6.860;2023-04-01T16:38:24;13.13;;;11.70;;
3718;SDS011;1875;52.492;6.860;2023-04-01T16:43:42;10.00;;;7.27;;
3718;SDS011;1875;52.492;6.860;2023-04-01T16:46:27;8.20;;;6.97;;
3718;SDS011;1875;52.492;6.860;2023-04-01T16:48:59;8.33;;;7.40;;
3718;SDS011;1875;52.492;6.860;2023-04-01T16:51:44;7.87;;;6.70;;
3718;SDS011;1875;52.492;6.860;2023-04-01T16:54:17;9.43;;;7.70;;
3718;SDS011;1875;52.492;6.860;2023-04-01T16:56:54;12.10;;;10.80;;
3718;SDS011;1875;52.492;6.860;2023-04-01T16:59:24;11.30;;;10.10;;
3718;SDS011;1875;52.492;6.860;2023-04-01T17:01:57;8.80;;;7.90;;
3718;SDS011;1875;52.492;6.860;2023-04-01T17:04:31;10.30;;;8.60;;
3718;SDS011;1875;52.492;6.860;2023-04-01T17:07:05;8.50;;;7.60;;
3718;SDS011;1875;52.492;6.860;2023-04-01T17:09:46;10.10;;;8.70;;
3718;SDS011;1875;52.492;6.860;2023-04-01T17:12:25;6.03;;;5.43;;
3718;SDS011;1875;52.492;6.860;2023-04-01T17:14:59;6.97;;;5.57;;
3718;SDS011;1875;52.492;6.860;2023-04-01T17:17:38;7.90;;;6.53;;
3718;SDS011;1875;52.492;6.860;2023-04-01T17:20:19;7.50;;;6.80;;
3718;SDS011;1875;52.492;6.860;2023-04-01T17:22:54;4.73;;;4.13;;
3718;SDS011;1875;52.492;6.860;2023-04-01T17:25:36;7.83;;;7.03;;
3718;SDS011;1875;52.492;6.860;2023-04-01T17:28:12;10.43;;;9.37;;